Latest Weather Observations for Bathurst Airport

IDN60801

Issued at 3:03 pm EST Tuesday 30 August 2016 (issued every 30 minutes, with the page automatically refreshed every 10 minutes)

About weather observations | Map of weather stations | Latest weather observations for NSW | Other Formats
Station Details ID: 063291 Name: BATHURST AIRPORT AWS Lat: -33.41 Lon: 149.65 Height: 744.5 m
Data from the previous 72 hours. | See also: Recent months at Bathurst Airport
Date/Time
EST
Temp
°C
App
Temp
°C
Dew
Point
°C
Rel
Hum
%
Delta-T
°C
Wind Press
QNH
hPa
Press
MSL
hPa
Rain since
9am
mm
Dir  Spd
km/h
Gust
km/h
Spd
kts
Gust
kts
30/03:00pm 17.3 13.9 9.2 59 4.4 NNW 17 22 9 12 1023.5 1024.1 0.0
30/02:30pm 17.7 13.6 8.8 56 4.8 N 20 26 11 14 1023.8 1024.4 0.0
30/02:00pm 18.2 14.3 9.3 56 4.8 NNW 20 26 11 14 1024.1 1024.8 0.0
30/01:30pm 17.6 14.6 9.2 58 4.5 N 15 24 8 13 1024.4 1025.1 0.0
30/01:00pm 16.7 14.0 7.4 54 4.8 NNW 11 17 6 9 1025.1 1025.8 0.0
30/12:30pm 16.4 13.1 8.1 58 4.4 NNW 15 20 8 11 1025.4 1026.1 0.0
30/12:00pm 15.0 12.0 7.5 61 3.8 N 13 17 7 9 1025.7 1026.4 0.0
30/11:30am 13.8 10.6 6.9 63 3.5 N 13 17 7 9 1026.5 1027.2 0.0
30/11:00am 13.0 10.6 7.2 68 2.9 NW 9 15 5 8 1027.2 1027.9 0.0
30/10:30am 11.9 9.5 7.0 72 2.4 W 9 11 5 6 1027.1 1027.8 0.0
30/10:00am 10.7 8.6 5.7 71 2.4 SSE 6 7 3 4 1026.4 1027.1 0.0
30/09:30am 8.2 7.3 6.2 87 1.0 CALM 0 0 0 0 1027.0 1027.7 0.0
30/09:00am 6.8 4.1 5.6 92 0.6 W 9 13 5 7 1027.2 1027.9 0.0
30/08:30am 7.0 5.0 6.3 95 0.3 S 6 11 3 6 1026.6 1027.3 0.0
30/08:00am 6.3 5.4 6.2 99 0.0 CALM 0 4 0 2 1026.5 1027.2 0.0
30/07:30am 5.6 3.4 5.5 99 0.0 SSW 6 7 3 4 1026.7 1027.4 0.0
30/07:00am 4.2 1.8 4.1 99 0.0 SW 6 7 3 4 1026.3 1027.0 0.0
30/06:30am 4.1 2.8 4.0 99 0.0 CALM 0 0 0 0 1026.3 1027.0 0.0
30/06:00am 3.8 2.4 3.4 97 0.2 CALM 0 0 0 0 1026.2 1026.8 0.0
30/05:30am 4.3 2.9 3.6 95 0.3 CALM 0 0 0 0 1025.7 1026.4 0.0
30/05:00am 4.7 2.9 3.7 93 0.4 SW 2 6 1 3 1025.8 1026.5 0.0
30/04:30am 5.2 3.9 4.2 93 0.4 CALM 0 0 0 0 1025.8 1026.5 0.0
30/04:00am 4.6 2.0 3.1 90 0.6 SW 6 9 3 5 1025.4 1026.1 0.0
30/03:30am 6.6 3.9 3.6 81 1.3 SE 7 9 4 5 1024.7 1025.3 0.0
30/03:00am 6.7 4.0 3.7 81 1.3 SE 7 9 4 5 1024.8 1025.4 0.0
30/02:30am 6.3 5.0 4.3 87 0.9 CALM 0 0 0 0 1025.2 1025.9 0.0
30/02:00am 7.2 4.8 4.5 83 1.2 ESE 6 9 3 5 1025.3 1026.0 0.0
30/01:30am 7.1 5.1 4.4 83 1.2 NE 4 7 2 4 1025.8 1026.5 0.0
30/01:00am 7.6 6.4 4.6 81 1.4 CALM 0 2 0 1 1025.9 1026.6 0.0
30/12:30am 8.2 5.2 4.2 76 1.8 ENE 9 11 5 6 1025.8 1026.5 0.0
30/12:00am 7.9 5.5 4.3 78 1.6 E 6 7 3 4 1026.4 1027.1 0.0
 
Date/Time
EST
Temp
°C
App
Temp
°C
Dew
Point
°C
Rel
Hum
%
Delta-T
°C
Wind Press
QNH
hPa
Press
MSL
hPa
Rain since
9am
mm
Dir  Spd
km/h
Gust
km/h
Spd
kts
Gust
kts
29/11:30pm 8.0 5.4 4.4 78 1.6 S 7 11 4 6 1026.4 1027.1 0.0
29/11:00pm 8.3 5.3 3.9 74 2.0 SE 9 11 5 6 1026.3 1027.0 0.0
29/10:30pm 8.6 6.0 4.4 75 1.9 SSE 7 11 4 6 1026.1 1026.7 0.0
29/10:00pm 9.1 6.7 4.5 73 2.1 NNE 6 7 3 4 1025.9 1026.6 0.0
29/09:30pm 9.3 7.6 4.1 70 2.4 NNE 2 7 1 4 1025.8 1026.5 0.0
29/09:00pm 8.8 6.2 4.2 73 2.1 NNW 7 9 4 5 1026.1 1026.7 0.0
29/08:30pm 10.1 6.8 4.5 68 2.6 E 11 15 6 8 1025.4 1026.1 0.0
29/08:00pm 9.1 5.9 3.1 66 2.7 NE 9 11 5 6 1025.2 1025.9 0.0
29/07:30pm 9.1 6.0 3.7 69 2.5 NNE 9 11 5 6 1025.2 1025.9 0.0
29/07:00pm 10.4 6.3 2.5 58 3.5 ENE 13 15 7 8 1025.3 1026.0 0.0
29/06:30pm 10.4 6.5 3.4 62 3.2 ENE 13 15 7 8 1024.8 1025.4 0.0
29/06:00pm 10.9 8.2 3.5 60 3.4 N 7 9 4 5 1025.2 1025.9 0.0
29/05:30pm 11.8 9.2 4.3 60 3.5 N 7 9 4 5 1024.7 1025.3 0.0
29/05:00pm 14.0 11.4 3.2 48 5.0 NW 6 7 3 4 1024.5 1025.2 0.0
29/04:30pm 14.2 11.1 3.7 49 5.0 NNW 9 11 5 6 1024.5 1025.2 0.0
29/04:00pm 15.0 11.3 2.5 43 5.8 NW 11 15 6 8 1024.3 1025.0 0.0
29/03:30pm 15.8 12.5 4.5 47 5.5 NW 11 13 6 7 1024.4 1025.1 0.0
29/03:00pm 15.9 13.0 4.6 47 5.5 NW 9 13 5 7 1024.3 1025.0 0.0
29/02:30pm 15.4 12.9 3.5 45 5.7 NNW 6 9 3 5 1024.4 1025.1 0.0
29/02:00pm 15.4 13.2 3.5 45 5.6 ENE 4 9 2 5 1024.3 1025.0 0.0
29/01:30pm 14.2 11.7 3.7 49 5.0 N 6 9 3 5 1024.8 1025.4 0.0
29/01:00pm 13.1 11.3 3.2 51 4.6 SSE 2 7 1 4 1024.8 1025.4 0.0
29/12:30pm 12.4 9.5 4.4 58 3.8 W 9 13 5 7 1025.5 1026.2 0.0
29/12:00pm 11.5 9.0 4.9 64 3.1 WSW 7 11 4 6 1025.7 1026.4 0.0
29/11:30am 9.9 7.3 3.0 62 3.1 WSW 6 9 3 5 1025.9 1026.6 0.0
29/11:00am 8.7 6.5 5.3 79 1.6 SW 6 11 3 6 1026.4 1027.1 0.0
29/10:30am 7.4 6.0 5.5 88 0.9 S 2 7 1 4 1026.6 1027.3 0.0
29/10:00am 5.4 3.2 3.6 88 0.8 WNW 4 7 2 4 1027.3 1028.1 0.0
29/09:30am 4.9 2.6 4.8 99 0.0 WSW 6 9 3 5 1027.4 1028.2 0.0
29/09:00am 3.2 0.6 3.1 99 0.0 SW 6 9 3 5 1027.2 1027.9 0.0
29/08:30am 2.2 -0.2 2.1 99 0.0 SW 4 7 2 4 1027.3 1028.1 0.0
29/08:00am 1.5 -1.4 1.4 99 0.0 S 6 7 3 4 1027.0 1027.7 0.0
29/07:30am 0.9 -1.0 0.8 99 0.0 CALM 0 0 0 0 1026.9 1027.6 0.0
29/07:00am 0.1 -1.9 0.0 99 0.0 CALM 0 0 0 0 1026.5 1027.2 0.0
29/06:30am -0.3 -2.7 -0.4 99 0.0 SE 2 6 1 3 1026.3 1027.0 0.0
29/06:00am -0.5 -3.7 -0.6 99 0.0 SE 6 7 3 4 1025.8 1026.5 0.0
29/05:30am -0.3 -2.3 -0.4 99 0.0 CALM 0 0 0 0 1025.3 1026.0 0.0
29/05:00am -0.2 -3.4 -0.3 99 0.0 SE 6 9 3 5 1025.1 1025.8 0.0
29/04:30am -0.2 -3.9 -0.3 99 0.0 SW 9 11 5 6 1025.3 1026.0 0.0
29/04:00am -0.1 -2.1 -0.2 99 0.0 CALM 0 2 0 1 1024.4 1025.1 0.0
29/03:30am 0.2 -2.5 0.1 99 0.0 SE 4 9 2 5 1024.3 1025.0 0.0
29/03:00am 0.1 -1.9 0.0 99 0.0 CALM 0 6 0 3 1024.3 1025.0 0.0
29/02:30am 1.7 -2.5 1.6 99 0.0 SE 13 13 7 7 1024.4 1025.1 0.0
29/02:00am 1.8 -2.4 1.7 99 0.0 SE 13 17 7 9 1024.5 1025.2 0.0
29/01:30am 2.7 -0.6 2.6 99 0.0 SE 9 13 5 7 1024.7 1025.3 0.0
29/01:00am 2.7 1.1 2.6 99 0.0 CALM 0 0 0 0 1024.7 1025.3 0.0
29/12:30am 2.7 1.1 2.6 99 0.0 CALM 0 0 0 0 1024.8 1025.4 0.0
29/12:00am 3.4 1.9 3.0 97 0.2 CALM 0 2 0 1 1024.5 1025.2 0.0
 
Date/Time
EST
Temp
°C
App
Temp
°C
Dew
Point
°C
Rel
Hum
%
Delta-T
°C
Wind Press
QNH
hPa
Press
MSL
hPa
Rain since
9am
mm
Dir  Spd
km/h
Gust
km/h
Spd
kts
Gust
kts
28/11:30pm 3.3 0.4 2.4 94 0.4 ENE 7 9 4 5 1024.5 1025.2 0.0
28/11:00pm 3.5 0.6 2.6 94 0.4 NE 7 9 4 5 1024.3 1025.0 0.0
28/10:30pm 5.4 3.6 3.6 88 0.8 NE 2 6 1 3 1024.7 1025.3 0.0
28/10:00pm 4.3 1.7 3.3 93 0.4 E 6 7 3 4 1024.8 1025.4 0.0
28/09:30pm 4.8 2.6 3.1 89 0.7 E 4 7 2 4 1024.7 1025.3 0.0
28/09:00pm 5.5 3.3 3.5 87 0.9 E 4 6 2 3 1024.4 1025.1 0.0
28/08:30pm 6.7 3.9 3.0 77 1.6 SE 7 7 4 4 1024.4 1025.1 0.0
28/08:00pm 7.2 4.4 3.4 77 1.7 SE 7 9 4 5 1024.1 1024.8 0.0
28/07:30pm 6.6 3.8 2.9 77 1.6 S 7 11 4 6 1023.9 1024.6 0.0
28/07:00pm 7.5 5.7 3.6 76 1.7 SSW 2 6 1 3 1023.8 1024.4 0.0
28/06:30pm 7.8 4.8 4.0 77 1.7 S 9 13 5 7 1023.6 1024.2 0.0
28/06:00pm 7.7 4.4 4.3 79 1.5 SW 11 13 6 7 1023.1 1023.8 0.0
28/05:30pm 8.8 5.8 4.0 72 2.2 SW 9 11 5 6 1022.7 1023.3 0.0
28/05:00pm 9.5 6.1 3.9 68 2.6 SW 11 13 6 7 1022.4 1023.0 0.0
28/04:30pm 10.7 6.4 3.0 59 3.5 WSW 15 19 8 10 1022.3 1022.9 0.0
28/04:00pm 11.9 7.2 3.2 55 4.0 W 17 22 9 12 1022.2 1022.8 0.0
28/03:30pm 13.2 8.4 4.4 55 4.2 WSW 19 24 10 13 1022.1 1022.7 0.0
28/03:00pm 13.1 8.7 2.9 50 4.7 W 15 19 8 10 1022.1 1022.7 0.0
28/02:30pm 12.7 7.5 2.6 50 4.6 WSW 19 24 10 13 1022.1 1022.7 0.0
28/02:00pm 12.1 9.4 3.6 56 3.9 SSW 7 13 4 7 1022.5 1023.1 0.0
28/01:30pm 11.5 8.7 3.3 57 3.8 N 7 9 4 5 1022.6 1023.2 0.0
28/01:00pm 10.3 8.0 2.7 59 3.4 WSW 4 9 2 5 1022.8 1023.5 0.0
28/12:30pm 10.4 8.0 4.1 65 2.9 WNW 6 9 3 5 1023.1 1023.8 0.0
28/12:00pm 8.8 7.5 4.0 72 2.2 CALM 0 0 0 0 1023.8 1024.4 0.0
28/11:30am 8.2 5.8 4.2 76 1.8 NNW 6 9 3 5 1024.0 1024.7 0.0
28/11:00am 7.6 5.6 4.2 79 1.5 N 4 9 2 5 1024.3 1025.0 0.0
28/10:30am 7.3 4.7 4.4 82 1.3 WNW 7 11 4 6 1024.8 1025.4 0.0
28/10:00am 6.0 3.4 4.2 88 0.8 N 7 9 4 5 1024.8 1025.4 0.0
28/09:30am 3.4 1.6 3.3 99 0.0 NNW 2 9 1 5 1025.0 1025.6 0.0
28/09:00am 1.8 0.1 1.7 99 0.0 CALM 0 0 0 0 1025.2 1025.9 0.0
28/08:30am 0.2 -1.8 0.1 99 0.0 CALM 0 2 0 1 1025.2 1025.9 0.0
28/08:00am -0.1 -2.1 -0.2 99 0.0 CALM 0 0 0 0 1024.9 1025.5 0.0
28/07:30am 0.1 -3.0 0.0 99 0.0 ESE 6 7 3 4 1024.5 1025.2 0.0
28/07:00am -0.4 -2.5 -0.5 99 0.0 CALM 0 6 0 3 1024.2 1024.9 0.0
28/06:55am -0.7 -3.2 -0.8 99 0.0 S 2 6 1 3 1024.1 1024.8 0.0
28/06:53am -0.9 -3.8 -1.0 99 0.0 S 4 6 2 3 1024.1 1024.8 0.0
28/06:30am -1.9 -5.3 -2.0 99 -0.1 S 6 7 3 4 1023.8 1024.4 0.0
28/06:10am -2.1 -4.4 -2.2 99 -0.1 CALM 0 0 0 0 1023.6 1024.2 0.0
28/06:05am -2.1 -4.4 -2.2 99 -0.1 CALM 0 0 0 0 1023.5 1024.1 0.0
28/06:00am -2.0 -4.3 -2.1 99 -0.1 CALM 0 0 0 0 1023.5 1024.1 0.0
28/05:30am -1.6 -5.1 -1.7 99 0.0 W 7 9 4 5 1023.1 1023.8 0.0
28/05:00am -0.8 -5.0 -0.9 99 0.0 ENE 11 13 6 7 1022.6 1023.2 0.0
28/04:30am 0.1 -1.9 0.0 99 0.0 CALM 0 0 0 0 1022.8 1023.5 0.0
28/04:00am -0.2 -3.0 -0.3 99 0.0 NE 4 7 2 4 1022.8 1023.5 0.0
28/03:30am 0.1 -3.6 0.0 99 0.0 NE 9 9 5 5 1022.5 1023.1 0.0
28/03:00am -0.3 -2.3 -0.4 99 0.0 CALM 0 0 0 0 1022.7 1023.3 0.0
28/02:30am -0.2 -3.6 -0.3 99 0.0 NE 7 7 4 4 1022.8 1023.5 0.0
28/02:00am 1.0 -2.6 0.9 99 0.0 ENE 9 9 5 5 1023.0 1023.7 0.0
28/01:30am 1.2 -2.3 1.1 99 0.0 NE 9 11 5 6 1023.1 1023.8 0.0
28/01:00am 1.8 -0.1 0.6 92 0.5 CALM 0 0 0 0 1023.3 1023.9 0.0
28/12:30am 2.4 0.7 1.8 96 0.2 CALM 0 0 0 0 1023.3 1023.9 0.0
28/12:00am 2.8 0.4 2.2 96 0.2 WSW 4 7 2 4 1023.6 1024.2 0.0
 
Date/Time
EST
Temp
°C
App
Temp
°C
Dew
Point
°C
Rel
Hum
%
Delta-T
°C
Wind Press
QNH
hPa
Press
MSL
hPa
Rain since
9am
mm
Dir  Spd
km/h
Gust
km/h
Spd
kts
Gust
kts
27/11:30pm 3.3 0.3 2.3 93 0.4 WSW 7 9 4 5 1023.6 1024.2 0.0
27/11:00pm 2.9 1.2 1.7 92 0.5 CALM 0 0 0 0 1023.5 1024.1 0.0
27/10:30pm 3.5 0.6 1.5 87 0.8 SSW 6 7 3 4 1023.7 1024.3 0.0
27/10:00pm 4.1 1.1 2.0 86 0.9 SSW 7 9 4 5 1023.7 1024.3 0.0
27/09:30pm 4.3 0.9 2.0 85 1.0 SSW 9 11 5 6 1023.9 1024.6 0.0
27/09:00pm 4.5 2.4 1.7 82 1.2 SW 2 9 1 5 1023.8 1024.4 0.0
27/08:30pm 4.8 1.8 1.8 81 1.3 SW 7 9 4 5 1023.5 1024.1 0.0
27/08:00pm 4.8 1.8 2.2 83 1.1 SSW 7 11 4 6 1023.3 1023.9 0.0
27/07:30pm 5.0 0.6 2.5 84 1.1 SW 15 17 8 9 1022.9 1023.6 0.0
27/07:00pm 5.6 1.1 2.3 79 1.4 SW 15 17 8 9 1022.7 1023.3 0.0
27/06:30pm 6.6 1.7 2.3 74 1.8 SW 17 20 9 11 1022.3 1022.9 0.0
27/06:00pm 6.9 2.8 2.4 73 1.9 SW 13 15 7 8 1021.8 1022.4 0.0
27/05:30pm 8.7 4.7 3.1 68 2.5 SW 13 15 7 8 1021.6 1022.3 0.0
27/05:00pm 10.1 5.3 2.7 60 3.3 WSW 17 19 9 10 1021.8 1022.4 0.0
27/04:30pm 10.9 5.6 3.0 58 3.6 SW 20 24 11 13 1021.5 1022.1 0.0
27/04:00pm 11.8 7.2 1.7 50 4.5 SW 15 20 8 11 1021.4 1022.0 0.0
27/03:30pm 12.9 9.7 -0.7 39 5.8 WNW 6 15 3 8 1021.4 1022.0 0.0

Other Formats:

Comma delimited format used in spreadsheet applications
http://www.bom.gov.au/fwo/IDN60801/IDN60801.94729.axf

JavaScript Object Notation format (JSON) in row-major order
http://www.bom.gov.au/fwo/IDN60801/IDN60801.94729.json